createdAt,value
2023-05-12T00:01:38.012Z,24.77
2023-05-12T00:06:41.416Z,26.88
2023-05-12T00:11:48.459Z,28.05
2023-05-12T00:16:52.755Z,26.25
2023-05-12T00:21:56.477Z,27.77
2023-05-12T00:27:01.377Z,35.17
2023-05-12T00:32:06.066Z,36.83
2023-05-12T00:37:09.585Z,31.63
2023-05-12T00:42:15.450Z,27.45
2023-05-12T00:47:20.275Z,25.00
2023-05-12T00:52:24.327Z,24.92
2023-05-12T00:57:29.495Z,28.90
2023-05-12T01:02:33.068Z,27.60
2023-05-12T01:07:37.701Z,24.48
2023-05-12T01:12:42.859Z,22.45
2023-05-12T01:17:52.102Z,22.67
2023-05-12T01:22:56.584Z,25.55
2023-05-12T01:28:02.059Z,22.30
2023-05-12T01:33:05.662Z,24.75
2023-05-12T01:38:09.170Z,25.85
2023-05-12T01:43:14.159Z,25.00
2023-05-12T01:48:17.505Z,25.10
2023-05-12T01:53:20.879Z,24.98
2023-05-12T01:58:25.826Z,26.05
2023-05-12T02:03:29.484Z,22.35
2023-05-12T02:08:32.971Z,22.63
2023-05-12T02:13:38.077Z,20.27
2023-05-12T02:18:41.595Z,20.88
2023-05-12T02:24:05.234Z,20.88
2023-05-12T02:29:10.839Z,20.98
2023-05-12T02:34:14.563Z,22.23
2023-05-12T02:39:18.134Z,19.52
2023-05-12T02:44:23.014Z,17.38
2023-05-12T02:49:26.437Z,19.40
2023-05-12T02:54:29.833Z,19.08
2023-05-12T02:59:34.679Z,19.88
2023-05-12T03:04:38.368Z,21.23
2023-05-12T03:09:41.921Z,22.80
2023-05-12T03:14:47.098Z,23.58
2023-05-12T03:19:50.453Z,26.55
2023-05-12T03:24:54.223Z,25.45
2023-05-12T03:30:00.869Z,20.10
2023-05-12T03:35:04.472Z,22.48
2023-05-12T03:40:09.288Z,19.40
2023-05-12T03:45:14.560Z,19.48
2023-05-12T03:50:18.695Z,15.68
2023-05-12T03:55:22.377Z,19.25
2023-05-12T04:00:27.403Z,16.45
2023-05-12T04:05:31.009Z,20.23
2023-05-12T04:10:34.564Z,15.27
2023-05-12T04:15:39.400Z,16.35
2023-05-12T04:20:43.038Z,13.23
2023-05-12T04:25:46.564Z,13.73
2023-05-12T04:30:51.330Z,14.23
2023-05-12T04:35:57.410Z,23.42
2023-05-12T04:41:01.125Z,23.73
2023-05-12T04:46:06.747Z,19.17
2023-05-12T04:51:10.573Z,14.27
2023-05-12T04:56:13.918Z,17.38
2023-05-12T05:01:19.362Z,16.70
2023-05-12T05:06:23.060Z,16.38
2023-05-12T05:11:26.870Z,15.00
2023-05-12T05:16:31.797Z,14.23
2023-05-12T05:21:35.849Z,13.75
2023-05-12T05:26:39.154Z,17.92
2023-05-12T05:31:44.557Z,10.80
2023-05-12T05:36:48.190Z,14.77
2023-05-12T05:41:52.062Z,18.58
2023-05-12T05:46:56.914Z,18.02
2023-05-12T05:52:00.326Z,11.65
2023-05-12T05:57:03.705Z,13.10
2023-05-12T06:02:08.902Z,12.98
2023-05-12T06:07:12.310Z,12.07
2023-05-12T06:12:15.979Z,14.52
2023-05-12T06:17:20.811Z,11.38
2023-05-12T06:22:24.985Z,13.88
2023-05-12T06:27:28.581Z,15.15
2023-05-12T06:32:33.571Z,13.95
2023-05-12T06:37:37.083Z,18.65
2023-05-12T06:42:40.481Z,11.00
2023-05-12T06:47:45.447Z,12.43
2023-05-12T06:52:48.960Z,12.35
2023-05-12T06:57:55.951Z,14.65
2023-05-12T07:03:01.218Z,11.68
2023-05-12T07:08:05.374Z,13.43
2023-05-12T07:13:09.228Z,9.85
2023-05-12T07:18:14.338Z,12.52
2023-05-12T07:23:17.804Z,10.55
2023-05-12T07:28:21.591Z,10.75
2023-05-12T07:33:26.553Z,10.88
2023-05-12T07:38:30.407Z,12.13
2023-05-12T07:43:33.906Z,12.00
2023-05-12T07:48:40.466Z,14.25
2023-05-12T07:53:44.150Z,12.15
2023-05-12T07:58:47.788Z,10.60
2023-05-12T08:03:53.023Z,15.60
2023-05-12T08:08:58.517Z,12.23
2023-05-12T08:14:02.240Z,5.97
2023-05-12T08:19:07.330Z,8.80
2023-05-12T08:24:11.107Z,13.00
2023-05-12T08:29:15.809Z,12.00
2023-05-12T08:34:20.665Z,11.07
2023-05-12T08:39:24.231Z,14.73
2023-05-12T08:44:28.185Z,10.30
2023-05-12T08:49:34.320Z,8.77
2023-05-12T08:54:48.630Z,12.30
2023-05-12T09:00:00.256Z,11.55
2023-05-12T09:05:05.525Z,11.80
2023-05-12T09:10:29.881Z,11.07
2023-05-12T09:15:40.824Z,11.35
2023-05-12T09:20:45.722Z,12.07
2023-05-12T09:26:00.644Z,11.52
2023-05-12T09:31:04.608Z,14.60
2023-05-12T09:36:09.928Z,8.55
2023-05-12T09:41:13.838Z,8.00
2023-05-12T09:46:17.970Z,8.90
2023-05-12T09:51:23.432Z,8.60
2023-05-12T09:56:29.054Z,11.52
2023-05-12T10:01:32.814Z,7.45
2023-05-12T10:06:42.170Z,10.25
2023-05-12T10:11:46.725Z,9.95
2023-05-12T10:16:51.648Z,7.00
2023-05-12T10:21:57.933Z,7.68
2023-05-12T10:27:03.453Z,5.55
2023-05-12T10:32:07.409Z,5.35
2023-05-12T10:37:13.037Z,5.35
2023-05-12T10:42:18.920Z,7.80
2023-05-12T10:47:27.193Z,5.50
2023-05-12T10:52:32.186Z,5.88
2023-05-12T10:57:36.579Z,6.95
2023-05-12T11:02:52.351Z,39.90
2023-05-12T11:07:58.806Z,34.78
2023-05-12T11:13:04.015Z,7.97
2023-05-12T11:18:07.705Z,10.88
2023-05-12T11:23:12.786Z,15.88
2023-05-12T11:28:16.232Z,8.80
2023-05-12T11:33:22.444Z,9.27
2023-05-12T11:38:28.455Z,11.60
2023-05-12T11:43:31.951Z,15.25
2023-05-12T11:48:36.364Z,10.68
2023-05-12T11:53:43.155Z,13.15
2023-05-12T11:58:55.522Z,10.75
2023-05-12T12:03:59.142Z,9.32
2023-05-12T12:09:04.177Z,11.18
2023-05-12T12:14:07.749Z,9.60
2023-05-12T12:19:11.203Z,7.85
2023-05-12T12:24:16.761Z,11.57
2023-05-12T12:29:20.357Z,9.38
2023-05-12T12:34:23.886Z,15.90
2023-05-12T12:39:28.836Z,9.60
2023-05-12T12:44:32.411Z,7.53
2023-05-12T12:49:36.300Z,11.55
2023-05-12T12:54:41.075Z,7.57
2023-05-12T12:59:44.413Z,8.80
2023-05-12T13:04:47.778Z,9.65
2023-05-12T13:09:53.135Z,10.88
2023-05-12T13:14:57.152Z,11.40
2023-05-12T13:20:00.728Z,7.63
2023-05-12T13:25:07.803Z,6.85
2023-05-12T13:30:13.794Z,7.10
2023-05-12T13:35:17.767Z,7.03
2023-05-12T13:40:22.709Z,6.32
2023-05-12T13:45:26.559Z,12.85
2023-05-12T13:50:33.451Z,8.05
2023-05-12T13:55:40.728Z,8.43
2023-05-12T14:00:44.463Z,7.05
2023-05-12T14:05:48.252Z,8.45
2023-05-12T14:10:53.151Z,10.30
2023-05-12T14:15:57.065Z,7.68
2023-05-12T14:21:01.802Z,9.40
2023-05-12T14:26:07.009Z,8.80
2023-05-12T14:31:10.719Z,6.75
2023-05-12T14:36:14.408Z,9.23
2023-05-12T14:41:19.533Z,13.30
2023-05-12T14:46:25.063Z,7.50
2023-05-12T14:51:29.078Z,6.57
2023-05-12T14:56:35.161Z,7.50
2023-05-12T15:01:38.668Z,10.10
2023-05-12T15:06:42.675Z,5.93
2023-05-12T15:11:48.216Z,9.25
2023-05-12T15:16:52.591Z,7.93
2023-05-12T15:21:56.125Z,18.45
2023-05-12T15:27:00.844Z,12.30
2023-05-12T15:32:05.424Z,12.65
2023-05-12T15:37:10.051Z,8.57
2023-05-12T15:42:22.191Z,10.10
2023-05-12T15:47:29.788Z,12.55
2023-05-12T15:52:33.298Z,10.20
2023-05-12T15:57:38.541Z,10.70
2023-05-12T16:02:42.151Z,12.68
2023-05-12T16:07:45.775Z,11.02
2023-05-12T16:12:50.706Z,8.30
2023-05-12T16:17:54.249Z,5.82
2023-05-12T16:22:57.638Z,14.57
2023-05-12T16:28:02.560Z,12.88
2023-05-12T16:33:07.548Z,12.85
2023-05-12T16:38:11.260Z,10.55
2023-05-12T16:43:16.233Z,8.18
2023-05-12T16:48:20.069Z,12.10
2023-05-12T16:53:23.422Z,11.65
2023-05-12T16:58:31.353Z,11.80
2023-05-12T17:03:34.890Z,16.33
2023-05-12T17:08:38.569Z,14.10
2023-05-12T17:13:43.486Z,27.10
2023-05-12T17:23:54.038Z,18.45
2023-05-12T17:28:59.059Z,17.48
2023-05-12T17:34:02.560Z,15.23
2023-05-12T17:39:06.252Z,21.17
2023-05-12T17:44:11.228Z,34.47
2023-05-12T17:49:14.619Z,57.67
2023-05-12T17:54:17.987Z,57.45
2023-05-12T17:59:22.791Z,45.10
2023-05-12T18:04:26.152Z,35.25
2023-05-12T18:09:30.424Z,19.67
2023-05-12T18:14:36.733Z,23.98
2023-05-12T18:19:40.310Z,20.33
2023-05-12T18:24:44.373Z,15.25
2023-05-12T18:29:49.187Z,16.60
2023-05-12T18:34:52.546Z,21.55
2023-05-12T18:39:56.218Z,17.30
2023-05-12T18:45:01.058Z,18.40
2023-05-12T18:50:04.880Z,20.70
2023-05-12T18:55:20.859Z,19.70
2023-05-12T19:00:27.702Z,18.08
2023-05-12T19:05:31.354Z,20.17
2023-05-12T19:10:35.895Z,21.00
2023-05-12T19:15:42.349Z,18.95
2023-05-12T19:20:45.857Z,17.83
2023-05-12T19:25:49.290Z,16.83
2023-05-12T19:30:55.157Z,16.48
2023-05-12T19:35:58.861Z,17.63
2023-05-12T19:41:02.310Z,28.52
2023-05-12T19:46:07.787Z,28.90
2023-05-12T19:51:11.478Z,23.02
2023-05-12T19:56:14.993Z,18.88
2023-05-12T20:01:20.262Z,38.80
2023-05-12T20:06:25.085Z,34.75
2023-05-12T20:11:28.562Z,55.63
2023-05-12T20:16:33.900Z,43.58
2023-05-12T20:21:37.327Z,36.10
2023-05-12T20:26:40.848Z,26.63
2023-05-12T20:31:45.965Z,28.42
2023-05-12T20:36:49.921Z,22.88
2023-05-12T20:42:00.309Z,20.25
2023-05-12T20:47:06.626Z,30.52
2023-05-12T20:52:10.213Z,38.58
2023-05-12T20:57:13.751Z,37.03
2023-05-12T21:02:19.295Z,30.35
2023-05-12T21:07:22.865Z,27.00
2023-05-12T21:12:26.600Z,33.97
2023-05-12T21:17:31.406Z,33.47
2023-05-12T21:22:34.804Z,35.42
2023-05-12T21:27:40.731Z,30.20
2023-05-12T21:32:45.894Z,19.00
2023-05-12T21:37:49.667Z,17.70
2023-05-12T21:42:53.152Z,26.23
2023-05-12T21:47:58.063Z,47.83
2023-05-12T21:53:01.542Z,28.58
2023-05-12T21:58:05.140Z,30.10
2023-05-12T22:03:10.092Z,26.70
2023-05-12T22:08:14.142Z,29.17
2023-05-12T22:13:17.643Z,42.30
2023-05-12T22:18:22.480Z,32.45
2023-05-12T22:23:25.970Z,33.25
2023-05-12T22:28:29.295Z,25.38
2023-05-12T22:33:34.053Z,26.60
2023-05-12T22:38:37.527Z,21.35
2023-05-12T22:43:41.020Z,32.08
2023-05-12T22:48:46.251Z,26.42
2023-05-12T22:53:49.766Z,23.90
2023-05-12T22:58:53.300Z,22.45
2023-05-12T23:04:01.290Z,26.85
2023-05-12T23:09:04.845Z,26.23
2023-05-12T23:14:08.985Z,22.23
2023-05-12T23:19:13.803Z,24.65
2023-05-12T23:24:17.558Z,24.40
2023-05-12T23:29:21.023Z,21.52
2023-05-12T23:34:25.859Z,20.70
2023-05-12T23:39:29.347Z,17.40
2023-05-12T23:44:32.956Z,21.20
2023-05-12T23:49:37.835Z,17.90
2023-05-12T23:54:41.299Z,17.50
2023-05-12T23:59:45.342Z,21.38
